ホノルル の空港の天気 - METARとTAF

ホノルル国際空港 ( PHNL / HNL ) - アメリカ合衆国 ハワイ州ホノルル
飛行場実況気象(Metar)
観測時間02/27 11:53 HST (02/27 21:53 UTC)
風向・風速東北東 8m/s
視程10km以上
天気現象
少しの雲 雲底高度 760m
全天の4割程度の雲 雲底高度 1520m
全天の8割程度の雲 雲底高度 7620m
気温26.7℃
湿度52%
気圧1016.1hPa
METARPHNL 272153Z 06015KT 10SM FEW025 SCT050 BKN250 27/16 A3001 RMK AO2 SLP161 T02670161 $
過去の天気等 Google飛行場航空写真 Wunderground天気予報

過去48時間のMETAR

飛行場予報(TAF)
発表時間: 2/27 11:08 HST (2/27 21:08 UTC)
予報対象時間: 27日11時 HST ~ 28日14時 HST
風向・風速東 6m/s
視程10km以上
少しの雲 雲底高度 910m
全天の4割程度の雲 雲底高度 1,370m
全天の8割程度の雲 雲底高度 6,100m
27日20時 HST から
風向・風速東北東 4m/s
視程10km以上
全天の4割程度の雲 雲底高度 760m
全天の8割程度の雲 雲底高度 1,220m
全天の8割程度の雲 雲底高度 5,490m
28日11時 HST から
風向・風速東南東 5m/s
視程10km以上
天気現象周辺でしゅう雨
全天の4割程度の雲 雲底高度 760m
全天の8割程度の雲 雲底高度 1,220m
全天の8割程度の雲 雲底高度 4,570m
PHNL 272108Z 2721/2824 08011KT P6SM FEW030 SCT045 BKN200
FM280600 07007KT P6SM SCT025 BKN040 BKN180
FM282100 12010KT P6SM VCSH SCT025 BKN040 BKN150